Time;durP1;ratioP1;P1;durP2;ratioP2;P2;SDS_P1;SDS_P2;PMS_P1;PMS_P2;Temp;Humidity;BMP_temperature;BMP_pressure;BME280_temperature;BME280_humidity;BME280_pressure;Samples;Min_cycle;Max_cycle;Signal;HPM_P1;HPM_P2
2024/01/02 00:01:30;;;;;;;21.93;14.90;;;;;;;;;;10557828;28;20877;-91
2024/01/02 00:30:25;;;;;;;23.15;14.07;;;;;;;;;;10477676;28;20460;-90
2024/01/02 00:35:27;;;;;;;24.92;14.63;;;;;;;;;;10467957;28;20408;-90
2024/01/02 00:40:30;;;;;;;23.75;14.52;;;;;;;;;;10463504;28;20443;-89
2024/01/02 00:45:33;;;;;;;18.25;12.98;;;;;;;;;;10461357;28;20423;-90
2024/01/02 00:50:36;;;;;;;20.40;14.00;;;;;;;;;;10476529;28;20405;-90
2024/01/02 00:55:39;;;;;;;20.88;13.57;;;;;;;;;;10478878;28;20406;-90
2024/01/02 01:00:43;;;;;;;19.70;13.63;;;;;;;;;;10476709;28;20478;-90
2024/01/02 01:05:45;;;;;;;20.02;13.77;;;;;;;;;;10500516;28;20993;-90
2024/01/02 01:10:47;;;;;;;19.98;13.82;;;;;;;;;;10485079;28;20475;-90
2024/01/02 01:15:51;;;;;;;20.33;13.85;;;;;;;;;;10504415;28;20394;-89
2024/01/02 01:20:53;;;;;;;18.52;12.77;;;;;;;;;;10498549;28;20392;-89
2024/01/02 01:25:56;;;;;;;19.10;13.10;;;;;;;;;;10501919;28;20423;-89
2024/01/02 01:31:00;;;;;;;18.63;13.13;;;;;;;;;;10516876;28;20448;-90
2024/01/02 01:36:02;;;;;;;17.30;12.40;;;;;;;;;;10525200;28;20392;-90
2024/01/02 01:41:04;;;;;;;17.55;12.55;;;;;;;;;;10532560;28;20430;-89
2024/01/02 01:46:09;;;;;;;17.73;12.03;;;;;;;;;;10527888;28;20571;-89
2024/01/02 01:51:11;;;;;;;16.17;12.33;;;;;;;;;;10498589;28;20410;-89
2024/01/02 01:56:14;;;;;;;17.10;11.93;;;;;;;;;;10502850;28;20398;-89
2024/01/02 02:01:18;;;;;;;17.60;12.35;;;;;;;;;;10498877;28;20432;-90
2024/01/02 02:06:20;;;;;;;18.02;12.75;;;;;;;;;;10501955;28;20464;-90
2024/01/02 02:11:23;;;;;;;17.37;12.27;;;;;;;;;;10518622;28;20400;-90
2024/01/02 02:16:27;;;;;;;18.83;13.00;;;;;;;;;;10509600;28;20475;-89
2024/01/02 02:21:30;;;;;;;18.98;11.77;;;;;;;;;;10532555;28;20946;-90
2024/01/02 02:26:33;;;;;;;21.67;11.10;;;;;;;;;;10523846;28;20398;-90
2024/01/02 02:31:36;;;;;;;20.17;12.32;;;;;;;;;;10506337;28;20471;-90
2024/01/02 02:36:38;;;;;;;17.80;11.90;;;;;;;;;;10502293;28;20810;-89
2024/01/02 02:41:42;;;;;;;18.70;11.83;;;;;;;;;;10524874;28;20807;-90
2024/01/02 02:46:45;;;;;;;17.63;12.07;;;;;;;;;;10517384;28;20463;-89
2024/01/02 02:51:47;;;;;;;18.48;11.30;;;;;;;;;;10505743;28;20409;-89
2024/01/02 02:56:51;;;;;;;19.05;11.80;;;;;;;;;;10517158;28;20405;-90
2024/01/02 03:01:54;;;;;;;14.88;10.93;;;;;;;;;;10512844;28;20438;-90
2024/01/02 03:06:56;;;;;;;18.45;11.00;;;;;;;;;;10496098;28;20954;-89
2024/01/02 03:12:00;;;;;;;17.88;11.63;;;;;;;;;;10519968;28;20408;-89
2024/01/02 03:17:02;;;;;;;14.55;10.85;;;;;;;;;;10505787;28;20406;-89
2024/01/02 03:22:05;;;;;;;15.07;11.25;;;;;;;;;;10522899;28;20990;-89
2024/01/02 03:27:09;;;;;;;16.20;11.05;;;;;;;;;;10493108;28;20413;-89
2024/01/02 03:32:11;;;;;;;16.47;11.03;;;;;;;;;;10526024;28;20604;-90
2024/01/02 03:37:14;;;;;;;15.95;11.02;;;;;;;;;;10502657;28;20410;-90
2024/01/02 03:42:18;;;;;;;16.50;11.07;;;;;;;;;;10514459;28;20417;-89
2024/01/02 03:47:20;;;;;;;15.53;10.70;;;;;;;;;;10509375;28;20402;-90
2024/01/02 03:52:23;;;;;;;15.23;10.63;;;;;;;;;;10508979;28;20398;-89
2024/01/02 03:57:27;;;;;;;16.55;11.13;;;;;;;;;;10513744;28;20404;-89
2024/01/02 04:02:30;;;;;;;18.00;11.00;;;;;;;;;;10516753;28;20419;-89
2024/01/02 04:07:32;;;;;;;16.85;11.00;;;;;;;;;;10505829;28;20440;-89
2024/01/02 04:12:37;;;;;;;15.30;9.82;;;;;;;;;;10520845;28;20456;-89
2024/01/02 04:17:39;;;;;;;18.23;11.80;;;;;;;;;;10538974;28;20452;-90
2024/01/02 04:22:42;;;;;;;16.77;10.85;;;;;;;;;;10545754;28;20432;-90
2024/01/02 04:27:45;;;;;;;18.20;11.27;;;;;;;;;;10524806;28;20405;-89
2024/01/02 04:32:48;;;;;;;19.52;11.32;;;;;;;;;;10509160;28;20446;-89
2024/01/02 04:37:50;;;;;;;20.57;11.27;;;;;;;;;;10531116;28;20450;-89
2024/01/02 04:42:54;;;;;;;24.33;12.45;;;;;;;;;;10530308;28;20456;-89
2024/01/02 04:47:56;;;;;;;24.20;12.63;;;;;;;;;;10504885;28;20397;-90
2024/01/02 04:52:58;;;;;;;21.20;12.13;;;;;;;;;;10503185;28;20879;-89
2024/01/02 04:58:03;;;;;;;21.88;12.20;;;;;;;;;;10501507;28;20406;-89
2024/01/02 05:03:05;;;;;;;20.67;12.10;;;;;;;;;;10531125;28;20481;-87
2024/01/02 05:08:08;;;;;;;24.17;13.27;;;;;;;;;;10527540;28;20406;-90
2024/01/02 05:13:11;;;;;;;26.85;12.85;;;;;;;;;;10512748;28;20396;-89
2024/01/02 05:18:14;;;;;;;19.83;11.88;;;;;;;;;;10540669;28;20462;-89
2024/01/02 05:23:16;;;;;;;20.73;11.50;;;;;;;;;;10522692;28;20551;-90
2024/01/02 05:28:20;;;;;;;20.48;11.55;;;;;;;;;;10510580;28;20406;-90
2024/01/02 05:33:23;;;;;;;19.77;12.48;;;;;;;;;;10509481;28;20450;-90
2024/01/02 05:38:25;;;;;;;21.77;11.73;;;;;;;;;;10504332;28;20398;-90
2024/01/02 05:43:29;;;;;;;25.15;10.73;;;;;;;;;;10526342;28;20416;-89
2024/01/02 05:48:31;;;;;;;22.50;11.15;;;;;;;;;;10519287;28;20404;-90
2024/01/02 05:53:34;;;;;;;25.23;12.02;;;;;;;;;;10519626;28;20417;-90
2024/01/02 05:58:37;;;;;;;27.88;11.35;;;;;;;;;;10524506;28;20465;-91
2024/01/02 06:03:40;;;;;;;23.00;11.07;;;;;;;;;;10525802;28;20420;-90
2024/01/02 06:08:42;;;;;;;27.55;12.27;;;;;;;;;;10521488;28;20410;-90
2024/01/02 06:13:46;;;;;;;24.93;10.97;;;;;;;;;;10527443;28;20455;-91
2024/01/02 06:18:48;;;;;;;27.75;11.30;;;;;;;;;;10522277;28;20462;-90
2024/01/02 06:23:51;;;;;;;46.25;19.63;;;;;;;;;;10507268;28;20925;-90
2024/01/02 06:28:54;;;;;;;24.75;11.52;;;;;;;;;;10514224;28;20412;-90
2024/01/02 06:33:57;;;;;;;20.73;12.30;;;;;;;;;;10506883;28;20414;-91
2024/01/02 06:38:59;;;;;;;24.57;12.53;;;;;;;;;;10514469;28;20440;-91
2024/01/02 06:44:03;;;;;;;32.63;13.52;;;;;;;;;;10521181;28;20420;-90
2024/01/02 06:49:05;;;;;;;36.10;18.15;;;;;;;;;;10506908;28;20732;-91
2024/01/02 06:54:07;;;;;;;54.55;27.67;;;;;;;;;;10508374;28;20945;-91
2024/01/02 06:59:11;;;;;;;35.27;19.60;;;;;;;;;;10509313;28;20406;-91
2024/01/02 07:04:14;;;;;;;44.53;22.02;;;;;;;;;;10512494;28;20416;-91
2024/01/02 07:09:16;;;;;;;54.63;28.83;;;;;;;;;;10505512;28;20457;-91
2024/01/02 07:14:20;;;;;;;28.58;16.90;;;;;;;;;;10504196;28;20404;-91
2024/01/02 07:19:22;;;;;;;29.27;18.70;;;;;;;;;;10537732;28;20461;-90
2024/01/02 07:24:25;;;;;;;18.60;11.87;;;;;;;;;;10530001;28;20422;-91
2024/01/02 07:29:29;;;;;;;18.98;11.75;;;;;;;;;;10506246;28;20459;-91
2024/01/02 07:34:31;;;;;;;20.80;13.43;;;;;;;;;;10521410;28;20507;-90
2024/01/02 07:39:35;;;;;;;39.20;22.58;;;;;;;;;;10526225;28;20430;-91
2024/01/02 07:44:38;;;;;;;149.77;60.55;;;;;;;;;;10528809;28;20494;-91
2024/01/02 07:49:41;;;;;;;31.98;17.23;;;;;;;;;;10516619;28;20720;-90
2024/01/02 07:54:43;;;;;;;41.58;23.33;;;;;;;;;;10531934;28;20469;-91
2024/01/02 07:59:47;;;;;;;145.23;60.25;;;;;;;;;;10541624;28;20402;-91
2024/01/02 08:04:49;;;;;;;79.20;34.97;;;;;;;;;;10514973;28;20594;-91
2024/01/02 08:09:52;;;;;;;63.03;28.67;;;;;;;;;;10504219;28;20934;-91
2024/01/02 08:14:55;;;;;;;22.38;13.50;;;;;;;;;;10516146;28;20400;-91
2024/01/02 08:19:58;;;;;;;51.22;26.50;;;;;;;;;;10520957;28;20402;-90
2024/01/02 08:25:00;;;;;;;24.42;13.85;;;;;;;;;;10525113;28;20430;-90
2024/01/02 08:30:05;;;;;;;24.58;14.55;;;;;;;;;;10519505;28;20397;-89
2024/01/02 08:35:08;;;;;;;23.58;13.35;;;;;;;;;;10531124;28;20478;-90
2024/01/02 08:40:12;;;;;;;23.80;14.38;;;;;;;;;;10518832;28;20396;-90
2024/01/02 08:45:16;;;;;;;22.42;13.70;;;;;;;;;;10532674;28;20413;-89
2024/01/02 08:50:19;;;;;;;24.15;13.80;;;;;;;;;;10519763;28;20436;-89
2024/01/02 08:55:21;;;;;;;25.70;15.77;;;;;;;;;;10525991;28;20423;-90
2024/01/02 09:00:25;;;;;;;31.60;16.03;;;;;;;;;;10539651;28;20398;-90
2024/01/02 09:05:27;;;;;;;28.15;15.60;;;;;;;;;;10522824;28;20471;-90
2024/01/02 09:10:30;;;;;;;24.58;14.82;;;;;;;;;;10516007;28;21000;-92
2024/01/02 09:15:35;;;;;;;21.15;13.68;;;;;;;;;;10523157;28;20402;-90
2024/01/02 09:20:37;;;;;;;23.17;13.40;;;;;;;;;;10516681;28;20441;-90
2024/01/02 09:25:45;;;;;;;28.70;13.73;;;;;;;;;;10515672;28;20463;-89
2024/01/02 09:30:49;;;;;;;22.40;12.70;;;;;;;;;;10516174;28;20426;-90
2024/01/02 09:35:51;;;;;;;27.83;14.52;;;;;;;;;;10521425;28;20502;-89
2024/01/02 09:41:07;;;;;;;29.58;13.43;;;;;;;;;;10525733;22;20991;-80
2024/01/02 09:46:21;;;;;;;27.92;13.63;;;;;;;;;;10519317;28;20433;-79
2024/01/02 09:51:37;;;;;;;25.38;11.80;;;;;;;;;;10517195;28;20468;-79
2024/01/02 09:56:46;;;;;;;41.63;15.93;;;;;;;;;;10511639;28;20398;-81
2024/01/02 10:02:03;;;;;;;50.38;19.50;;;;;;;;;;10507668;28;20448;-82
2024/01/02 10:07:20;;;;;;;29.43;12.67;;;;;;;;;;10508841;28;20601;-81
2024/01/02 10:12:31;;;;;;;31.08;13.30;;;;;;;;;;10508745;28;20507;-81
2024/01/02 10:17:44;;;;;;;34.20;13.93;;;;;;;;;;10510020;28;20942;-81
2024/01/02 10:22:58;;;;;;;34.53;14.18;;;;;;;;;;10511880;28;20611;-82
2024/01/02 10:28:14;;;;;;;32.83;13.70;;;;;;;;;;10506863;28;20520;-80
2024/01/02 10:33:23;;;;;;;29.23;14.13;;;;;;;;;;10505246;28;20537;-79
2024/01/02 10:38:37;;;;;;;35.78;15.25;;;;;;;;;;10518798;28;20405;-81
2024/01/02 10:43:50;;;;;;;35.25;15.30;;;;;;;;;;10549699;28;20799;-81
2024/01/02 10:48:59;;;;;;;35.55;15.80;;;;;;;;;;10548436;28;20761;-81
2024/01/02 10:54:05;;;;;;;34.92;15.82;;;;;;;;;;10546378;28;20995;-82
2024/01/02 10:59:17;;;;;;;33.22;14.48;;;;;;;;;;10553986;28;20457;-81
2024/01/02 11:04:27;;;;;;;31.83;14.50;;;;;;;;;;10550042;28;20560;-81
2024/01/02 11:09:35;;;;;;;34.00;15.30;;;;;;;;;;10547514;28;20443;-81
2024/01/02 11:14:41;;;;;;;35.33;15.05;;;;;;;;;;10555157;28;20434;-82
2024/01/02 11:19:57;;;;;;;33.80;15.63;;;;;;;;;;10542889;28;20463;-82
2024/01/02 11:25:04;;;;;;;34.87;15.23;;;;;;;;;;10545845;28;20463;-79
2024/01/02 11:30:10;;;;;;;39.40;17.75;;;;;;;;;;10543532;28;20471;-82
2024/01/02 11:35:14;;;;;;;35.13;15.25;;;;;;;;;;10546076;28;20539;-80
2024/01/02 11:40:21;;;;;;;33.47;13.43;;;;;;;;;;10544298;28;20442;-80
2024/01/02 11:45:26;;;;;;;30.73;13.73;;;;;;;;;;10552097;28;20553;-85
2024/01/02 11:50:38;;;;;;;31.40;12.52;;;;;;;;;;10545568;28;20735;-84
2024/01/02 11:55:46;;;;;;;32.30;13.23;;;;;;;;;;10537407;28;21114;-85
2024/01/02 12:01:00;;;;;;;30.52;13.10;;;;;;;;;;10539508;28;20505;-85
2024/01/02 12:06:10;;;;;;;32.42;13.75;;;;;;;;;;10547182;28;20455;-84
2024/01/02 12:11:17;;;;;;;31.13;13.57;;;;;;;;;;10541986;28;20434;-86
2024/01/02 12:16:21;;;;;;;33.80;13.93;;;;;;;;;;10546738;28;20540;-85
2024/01/02 12:21:27;;;;;;;30.80;13.50;;;;;;;;;;10551291;28;20430;-84
2024/01/02 12:26:34;;;;;;;32.05;14.35;;;;;;;;;;10561947;28;20849;-87
2024/01/02 12:31:42;;;;;;;34.28;15.13;;;;;;;;;;10573597;28;20917;-85
2024/01/02 12:36:58;;;;;;;30.25;13.85;;;;;;;;;;10555236;28;20424;-87
2024/01/02 12:42:05;;;;;;;32.17;14.13;;;;;;;;;;10566262;27;20460;-87
2024/01/02 12:47:10;;;;;;;29.58;13.43;;;;;;;;;;10573099;27;20414;-85
2024/01/02 12:52:19;;;;;;;32.40;14.32;;;;;;;;;;10549489;27;20435;-87
2024/01/02 12:57:21;;;;;;;33.42;14.43;;;;;;;;;;10554976;28;20420;-87
2024/01/02 13:02:24;;;;;;;36.15;15.18;;;;;;;;;;10540115;27;20398;-86
2024/01/02 13:07:30;;;;;;;44.63;18.40;;;;;;;;;;10557590;27;20414;-87
2024/01/02 13:12:34;;;;;;;35.40;15.17;;;;;;;;;;10557576;28;20459;-87
2024/01/02 13:17:37;;;;;;;37.60;16.17;;;;;;;;;;10551211;27;20434;-86
2024/01/02 13:22:41;;;;;;;34.28;15.35;;;;;;;;;;10556409;28;20410;-87
2024/01/02 13:27:43;;;;;;;36.70;14.73;;;;;;;;;;10554235;28;20454;-87
2024/01/02 13:32:53;;;;;;;71.15;23.17;;;;;;;;;;10558631;28;20462;-88
2024/01/02 13:38:03;;;;;;;140.45;41.10;;;;;;;;;;10557757;28;20494;-88
2024/01/02 13:43:06;;;;;;;84.80;28.05;;;;;;;;;;10561263;28;20399;-86
2024/01/02 13:48:10;;;;;;;75.85;32.05;;;;;;;;;;10569066;28;20491;-87
2024/01/02 13:53:14;;;;;;;49.75;23.13;;;;;;;;;;10562069;28;20456;-86
2024/01/02 13:58:17;;;;;;;41.20;18.80;;;;;;;;;;10562351;28;20394;-87
2024/01/02 14:03:20;;;;;;;88.77;39.50;;;;;;;;;;10568007;28;20456;-87
2024/01/02 14:08:25;;;;;;;65.80;29.83;;;;;;;;;;10562727;28;20414;-87
2024/01/02 14:13:29;;;;;;;36.22;16.52;;;;;;;;;;10557719;28;20466;-86
2024/01/02 14:18:36;;;;;;;31.90;13.50;;;;;;;;;;10562673;28;20434;-87
2024/01/02 14:23:49;;;;;;;28.73;12.95;;;;;;;;;;10563237;28;20403;-86
2024/01/02 14:28:59;;;;;;;29.70;13.43;;;;;;;;;;10557791;28;20481;-86
2024/01/02 14:34:16;;;;;;;26.25;12.93;;;;;;;;;;10548808;28;20400;-86
2024/01/02 14:39:42;;;;;;;29.27;13.13;;;;;;;;;;10550996;28;20474;-86
2024/01/02 14:45:02;;;;;;;26.60;12.43;;;;;;;;;;10540695;28;20402;-87
2024/01/02 14:50:06;;;;;;;32.35;12.68;;;;;;;;;;10547390;28;20944;-86
2024/01/02 14:55:24;;;;;;;28.65;12.70;;;;;;;;;;10551052;28;20420;-86
2024/01/02 15:00:29;;;;;;;25.95;12.30;;;;;;;;;;10566227;28;20408;-85
2024/01/02 15:05:40;;;;;;;30.95;13.60;;;;;;;;;;10559113;28;20445;-85
2024/01/02 15:11:06;;;;;;;26.27;13.07;;;;;;;;;;10559144;28;20442;-85
2024/01/02 15:16:21;;;;;;;35.60;19.47;;;;;;;;;;10546527;28;20416;-84
2024/01/02 15:21:35;;;;;;;30.90;13.65;;;;;;;;;;10563481;28;20410;-87
2024/01/02 15:26:45;;;;;;;30.60;14.20;;;;;;;;;;10548108;28;20517;-87
2024/01/02 15:31:50;;;;;;;37.83;17.77;;;;;;;;;;10557599;28;20509;-87
2024/01/02 15:37:04;;;;;;;38.08;17.85;;;;;;;;;;10554616;28;20414;-87
2024/01/02 15:42:25;;;;;;;42.75;23.25;;;;;;;;;;10551791;28;20423;-87
2024/01/02 15:47:38;;;;;;;39.50;18.20;;;;;;;;;;10550527;28;20481;-88
2024/01/02 15:52:42;;;;;;;29.53;14.50;;;;;;;;;;10551819;28;20474;-85
2024/01/02 15:57:50;;;;;;;34.13;15.63;;;;;;;;;;10546783;28;20444;-85
2024/01/02 16:03:40;;;;;;;30.93;14.00;;;;;;;;;;10540681;27;20404;-85
2024/01/02 16:08:56;;;;;;;31.90;14.52;;;;;;;;;;10555683;27;20451;-84
2024/01/02 16:14:31;;;;;;;31.42;14.40;;;;;;;;;;10555750;27;20436;-83
2024/01/02 16:20:03;;;;;;;33.65;14.23;;;;;;;;;;10559973;27;20443;-84
2024/01/02 16:25:38;;;;;;;36.28;17.45;;;;;;;;;;10550759;28;20436;-85
2024/01/02 16:31:00;;;;;;;34.13;17.77;;;;;;;;;;10547744;28;20427;-85
2024/01/02 16:36:16;;;;;;;38.22;20.73;;;;;;;;;;10546023;28;20491;-87
2024/01/02 16:41:22;;;;;;;28.98;13.57;;;;;;;;;;10558586;28;20924;-86
2024/01/02 16:46:29;;;;;;;31.55;14.25;;;;;;;;;;10530052;28;20511;-86
2024/01/02 16:51:32;;;;;;;27.88;14.13;;;;;;;;;;10555799;28;20473;-86
2024/01/02 16:56:36;;;;;;;32.35;13.80;;;;;;;;;;10552760;28;20446;-83
2024/01/02 17:01:41;;;;;;;31.05;14.52;;;;;;;;;;10552666;28;20432;-81
2024/01/02 17:06:45;;;;;;;29.40;14.48;;;;;;;;;;10551375;28;20459;-84
2024/01/02 17:11:48;;;;;;;35.67;17.30;;;;;;;;;;10550908;28;20424;-84
2024/01/02 17:16:53;;;;;;;34.55;17.08;;;;;;;;;;10561921;28;20931;-83
2024/01/02 17:21:56;;;;;;;31.97;15.23;;;;;;;;;;10554406;28;20915;-87
2024/01/02 17:26:59;;;;;;;29.02;15.43;;;;;;;;;;10556812;28;20458;-84
2024/01/02 17:32:03;;;;;;;30.50;15.10;;;;;;;;;;10545673;27;20400;-80
2024/01/02 17:37:06;;;;;;;34.43;17.03;;;;;;;;;;10557580;28;20482;-85
2024/01/02 17:42:09;;;;;;;47.58;23.70;;;;;;;;;;10553381;28;20505;-84
2024/01/02 17:47:14;;;;;;;31.92;16.55;;;;;;;;;;10555994;28;20412;-84
2024/01/02 17:52:18;;;;;;;38.20;18.10;;;;;;;;;;10544546;28;20496;-84
2024/01/02 17:57:23;;;;;;;53.25;26.77;;;;;;;;;;10549329;28;20401;-82
2024/01/02 18:02:40;;;;;;;25.42;14.43;;;;;;;;;;10541060;27;20500;-84
2024/01/02 18:07:54;;;;;;;41.42;21.67;;;;;;;;;;10552187;28;20450;-84
2024/01/02 18:13:13;;;;;;;33.17;16.70;;;;;;;;;;10545836;28;20775;-84
2024/01/02 18:18:24;;;;;;;29.38;16.83;;;;;;;;;;10551582;27;20518;-84
2024/01/02 18:23:35;;;;;;;36.75;20.63;;;;;;;;;;10552995;28;20919;-83
2024/01/02 18:28:48;;;;;;;36.30;19.15;;;;;;;;;;10544283;27;20454;-84
2024/01/02 18:34:10;;;;;;;33.00;18.70;;;;;;;;;;10543922;28;20446;-84
2024/01/02 18:39:22;;;;;;;39.07;22.43;;;;;;;;;;10544829;28;20501;-82
2024/01/02 18:44:36;;;;;;;39.33;20.85;;;;;;;;;;10544790;28;20442;-83
2024/01/02 18:49:44;;;;;;;34.50;19.17;;;;;;;;;;10543401;28;20458;-79
2024/01/02 18:54:56;;;;;;;31.77;17.27;;;;;;;;;;10549642;28;20438;-87
2024/01/02 19:00:00;;;;;;;31.90;17.15;;;;;;;;;;10548488;28;20468;-85
2024/01/02 19:05:04;;;;;;;34.37;19.43;;;;;;;;;;10544137;28;20442;-86
2024/01/02 19:10:10;;;;;;;33.70;18.57;;;;;;;;;;10546945;28;20451;-86
2024/01/02 19:15:12;;;;;;;33.15;18.80;;;;;;;;;;10544375;28;21123;-86
2024/01/02 19:20:16;;;;;;;33.65;19.40;;;;;;;;;;10551517;28;20499;-85
2024/01/02 19:25:21;;;;;;;35.25;20.95;;;;;;;;;;10545325;28;20445;-87
2024/01/02 19:30:25;;;;;;;37.45;21.55;;;;;;;;;;10543066;28;20442;-86
2024/01/02 19:35:29;;;;;;;34.70;19.30;;;;;;;;;;10543114;28;20414;-87
2024/01/02 19:40:32;;;;;;;33.80;18.35;;;;;;;;;;10540717;28;20531;-87
2024/01/02 19:45:38;;;;;;;34.65;17.75;;;;;;;;;;10545925;28;20431;-87
2024/01/02 19:50:46;;;;;;;35.83;18.47;;;;;;;;;;10543924;28;20448;-87
2024/01/02 19:55:53;;;;;;;34.03;18.65;;;;;;;;;;10545217;28;20485;-87
2024/01/02 20:00:57;;;;;;;38.60;19.90;;;;;;;;;;10552547;28;20402;-87
2024/01/02 20:06:01;;;;;;;36.10;19.17;;;;;;;;;;10541288;28;20450;-89
2024/01/02 20:11:11;;;;;;;37.33;20.47;;;;;;;;;;10550290;28;20870;-86
2024/01/02 20:16:52;;;;;;;40.20;21.27;;;;;;;;;;10541028;28;20412;-83
2024/01/02 20:21:56;;;;;;;41.35;20.92;;;;;;;;;;10547764;28;20892;-87
2024/01/02 20:26:58;;;;;;;41.65;21.50;;;;;;;;;;10550626;28;20418;-88
2024/01/02 20:32:01;;;;;;;42.30;22.08;;;;;;;;;;10568151;28;20410;-88
2024/01/02 20:37:15;;;;;;;43.73;22.00;;;;;;;;;;10556825;28;20418;-88
2024/01/02 20:42:18;;;;;;;43.83;22.52;;;;;;;;;;10563366;28;20402;-89
2024/01/02 20:47:38;;;;;;;45.70;22.23;;;;;;;;;;10557926;28;21120;-89
2024/01/02 20:52:41;;;;;;;47.75;23.67;;;;;;;;;;10570301;28;21012;-80
2024/01/02 20:57:44;;;;;;;48.35;23.55;;;;;;;;;;10560094;28;20447;-86
2024/01/02 21:02:47;;;;;;;43.80;22.55;;;;;;;;;;10539859;28;20496;-86
2024/01/02 21:07:51;;;;;;;45.80;22.23;;;;;;;;;;10541713;28;20521;-84
2024/01/02 21:12:53;;;;;;;42.75;22.75;;;;;;;;;;10540147;28;20489;-86
2024/01/02 21:17:56;;;;;;;47.58;23.70;;;;;;;;;;10546217;28;20416;-88
2024/01/02 21:23:01;;;;;;;43.60;22.08;;;;;;;;;;10559784;28;20479;-89
2024/01/02 21:28:07;;;;;;;43.28;22.95;;;;;;;;;;10567758;28;20410;-87
2024/01/02 21:33:09;;;;;;;44.20;22.57;;;;;;;;;;10580678;28;20524;-91
2024/01/02 21:38:14;;;;;;;43.30;22.47;;;;;;;;;;10572274;28;20418;-91
2024/01/02 21:43:28;;;;;;;39.75;21.08;;;;;;;;;;10569433;28;20479;-91
2024/01/02 21:48:42;;;;;;;45.33;24.02;;;;;;;;;;10564058;28;20414;-91
2024/01/02 21:53:46;;;;;;;46.63;24.70;;;;;;;;;;10568295;27;20449;-91
2024/01/02 21:58:49;;;;;;;42.53;22.77;;;;;;;;;;10563150;27;20416;-91
2024/01/02 22:03:53;;;;;;;42.45;22.52;;;;;;;;;;10561829;27;20410;-91
2024/01/02 22:09:02;;;;;;;50.03;24.87;;;;;;;;;;10579060;27;20426;-90
2024/01/02 22:14:08;;;;;;;45.03;23.17;;;;;;;;;;10564621;28;20398;-90
2024/01/02 22:19:36;;;;;;;44.17;22.10;;;;;;;;;;10564660;28;20522;-90
2024/01/02 22:24:57;;;;;;;39.50;21.00;;;;;;;;;;10561103;28;20469;-90
2024/01/02 22:29:59;;;;;;;43.92;22.00;;;;;;;;;;10563488;28;20416;-91
2024/01/02 22:35:27;;;;;;;45.95;24.08;;;;;;;;;;10566065;28;20476;-90
2024/01/02 22:40:40;;;;;;;45.93;23.67;;;;;;;;;;10566706;28;20416;-90
2024/01/02 22:45:42;;;;;;;51.08;24.50;;;;;;;;;;10572342;28;20444;-90
2024/01/02 22:50:44;;;;;;;47.85;24.67;;;;;;;;;;10558989;28;20414;-91
2024/01/02 22:55:48;;;;;;;48.85;25.20;;;;;;;;;;10556098;28;20410;-90
2024/01/02 23:00:50;;;;;;;51.88;25.27;;;;;;;;;;10571476;28;20398;-90
2024/01/02 23:05:53;;;;;;;46.75;24.95;;;;;;;;;;10566462;28;20402;-89
2024/01/02 23:10:57;;;;;;;43.90;23.50;;;;;;;;;;10566322;28;20501;-90
2024/01/02 23:16:10;;;;;;;44.72;23.95;;;;;;;;;;10564957;28;20451;-91
2024/01/02 23:21:12;;;;;;;54.47;26.45;;;;;;;;;;10592777;28;20416;-91
2024/01/02 23:26:16;;;;;;;47.45;25.75;;;;;;;;;;10600918;28;20386;-90
2024/01/02 23:31:19;;;;;;;47.07;24.67;;;;;;;;;;10565109;28;20905;-91
2024/01/02 23:36:21;;;;;;;49.20;24.83;;;;;;;;;;10567350;28;20407;-90
2024/01/02 23:41:30;;;;;;;49.88;26.48;;;;;;;;;;10567544;28;20404;-90
2024/01/02 23:46:35;;;;;;;51.60;26.33;;;;;;;;;;10563068;28;20452;-89
2024/01/02 23:51:37;;;;;;;52.05;26.77;;;;;;;;;;10567092;28;20406;-90
2024/01/02 23:56:42;;;;;;;50.20;25.30;;;;;;;;;;10564755;28;20407;-90
